Time;durP1;ratioP1;P1;durP2;ratioP2;P2;SDS_P1;SDS_P2;PMS_P1;PMS_P2;Temp;Humidity;BMP_temperature;BMP_pressure;BME280_temperature;BME280_humidity;BME280_pressure;Samples;Min_cycle;Max_cycle;Signal;HPM_P1;HPM_P2
2023/06/28 00:01:05;;;;;;;2.20;0.90;;;;;;;19.81;59.25;98762.25;4136643;28;20205;-51
2023/06/28 00:03:10;;;;;;;3.00;1.00;;;;;;;19.80;59.06;98766.16;4137345;28;20651;-51
2023/06/28 00:05:13;;;;;;;1.23;1.10;;;;;;;19.84;58.93;98764.44;4148383;28;20213;-52
2023/06/28 00:07:15;;;;;;;3.88;1.67;;;;;;;19.86;58.79;98764.94;4136883;28;20272;-52
2023/06/28 00:09:17;;;;;;;2.88;1.15;;;;;;;19.83;58.90;98760.81;4146584;28;20313;-52
2023/06/28 00:11:19;;;;;;;2.08;1.17;;;;;;;19.83;59.13;98760.81;4135356;28;20715;-52
2023/06/28 00:13:21;;;;;;;1.73;0.90;;;;;;;19.83;58.99;98760.81;4148845;28;20274;-53
2023/06/28 00:15:23;;;;;;;1.50;1.08;;;;;;;19.84;58.97;98761.66;4163556;28;20220;-52
2023/06/28 00:17:28;;;;;;;2.42;0.98;;;;;;;19.78;59.20;98769.22;4137619;28;20773;-52
2023/06/28 00:19:32;;;;;;;2.45;1.20;;;;;;;19.72;59.44;98769.63;4135822;28;20265;-53
2023/06/28 00:21:34;;;;;;;2.30;1.15;;;;;;;19.71;59.22;98770.75;4152178;28;20227;-52
2023/06/28 00:23:36;;;;;;;2.58;1.35;;;;;;;19.72;59.39;98764.06;4149708;28;20219;-52
2023/06/28 00:25:37;;;;;;;2.03;1.20;;;;;;;19.72;59.87;98772.41;4148716;28;20223;-52
2023/06/28 00:27:39;;;;;;;1.67;0.95;;;;;;;19.68;59.96;98774.13;4139888;28;20209;-50
2023/06/28 00:29:41;;;;;;;1.65;0.80;;;;;;;19.68;60.17;98774.13;4169148;28;20558;-51
2023/06/28 00:31:43;;;;;;;3.08;1.05;;;;;;;19.68;60.95;98766.63;4138196;28;20205;-52
2023/06/28 00:33:45;;;;;;;1.63;1.00;;;;;;;19.68;61.76;98768.56;4141951;28;20220;-51
2023/06/28 00:35:48;;;;;;;4.63;1.30;;;;;;;19.64;62.32;98767.53;4123099;28;20285;-51
2023/06/28 00:37:50;;;;;;;4.07;1.13;;;;;;;19.59;62.41;98762.88;4167001;28;20269;-53
2023/06/28 00:39:54;;;;;;;1.63;0.93;;;;;;;19.57;62.83;98769.88;4136892;28;20736;-53
2023/06/28 00:41:56;;;;;;;1.73;1.15;;;;;;;19.53;63.65;98768.81;4168927;28;20227;-51
2023/06/28 00:43:58;;;;;;;1.38;1.02;;;;;;;19.53;63.92;98766.03;4137760;28;20205;-53
2023/06/28 00:46:00;;;;;;;2.08;1.10;;;;;;;19.49;63.99;98759.44;4142881;28;20288;-52
2023/06/28 00:48:01;;;;;;;1.42;1.25;;;;;;;19.52;63.61;98758.84;4131771;28;20247;-54
2023/06/28 00:50:04;;;;;;;1.40;1.10;;;;;;;19.44;63.40;98767.88;4134507;28;20244;-53
2023/06/28 00:52:06;;;;;;;1.92;1.00;;;;;;;19.36;63.41;98765.75;4136142;28;20283;-52
2023/06/28 00:54:09;;;;;;;3.15;1.63;;;;;;;19.23;63.88;98766.50;4168678;28;20256;-51
2023/06/28 00:56:11;;;;;;;3.28;1.17;;;;;;;19.23;64.34;98772.88;4167358;28;20228;-53
2023/06/28 00:58:13;;;;;;;3.38;1.23;;;;;;;19.21;65.36;98768.75;4139968;28;20408;-54
2023/06/28 01:00:16;;;;;;;5.57;1.33;;;;;;;19.19;66.71;98768.19;4165702;28;20638;-52
2023/06/28 01:02:18;;;;;;;1.98;1.15;;;;;;;19.17;67.23;98762.13;4138425;28;20341;-53
2023/06/28 01:04:22;;;;;;;2.88;1.23;;;;;;;18.98;69.74;98769.59;4156507;28;20216;-52
2023/06/28 01:06:24;;;;;;;1.48;1.27;;;;;;;19.00;70.17;98761.81;4144373;28;20225;-53
2023/06/28 01:08:26;;;;;;;2.70;1.05;;;;;;;19.05;70.54;98770.06;4138734;28;20675;-52
2023/06/28 01:10:28;;;;;;;1.67;1.00;;;;;;;19.11;71.17;98774.44;4140440;28;20221;-51
2023/06/28 01:12:30;;;;;;;1.13;0.80;;;;;;;19.12;71.83;98778.84;4139126;28;20213;-52
2023/06/28 01:14:32;;;;;;;3.53;1.35;;;;;;;19.12;72.50;98776.06;4135594;28;20703;-53
2023/06/28 01:16:34;;;;;;;1.83;1.20;;;;;;;19.08;72.54;98777.78;4134166;28;20229;-51
2023/06/28 01:18:36;;;;;;;3.00;1.20;;;;;;;19.02;73.10;98781.75;4121098;28;20266;-53
2023/06/28 01:20:38;;;;;;;3.97;1.23;;;;;;;18.92;74.24;98781.88;4135130;28;20209;-53
2023/06/28 01:22:40;;;;;;;2.35;1.20;;;;;;;18.90;74.52;98784.97;4135190;28;20283;-51
2023/06/28 01:24:46;;;;;;;2.33;1.17;;;;;;;18.90;74.91;98789.66;4137491;28;20237;-53
2023/06/28 01:26:52;;;;;;;1.65;1.08;;;;;;;18.84;75.76;98788.09;4131699;28;20283;-51
2023/06/28 01:28:54;;;;;;;1.48;1.02;;;;;;;18.78;76.74;98792.06;4133553;28;20244;-52
2023/06/28 01:30:57;;;;;;;1.45;1.10;;;;;;;18.75;76.70;98787.09;4136642;28;20221;-53
2023/06/28 01:32:59;;;;;;;1.85;1.25;;;;;;;18.74;77.84;98785.44;4136729;28;20206;-54
2023/06/28 01:35:01;;;;;;;1.63;1.10;;;;;;;18.69;78.87;98789.09;4137368;28;20568;-53
2023/06/28 01:37:03;;;;;;;2.50;1.45;;;;;;;18.61;79.06;98786.16;4138239;28;20217;-52
2023/06/28 01:39:05;;;;;;;3.45;1.30;;;;;;;18.36;80.69;98783.66;4150021;28;20205;-52
2023/06/28 01:41:10;;;;;;;1.55;1.15;;;;;;;18.45;80.15;98782.72;4136011;28;20210;-51
2023/06/28 01:43:11;;;;;;;2.55;1.63;;;;;;;18.47;80.26;98782.44;4135219;28;20725;-53
2023/06/28 01:45:13;;;;;;;2.20;0.93;;;;;;;18.44;80.68;98797.72;4135070;28;20802;-52
2023/06/28 01:47:15;;;;;;;1.92;1.20;;;;;;;18.45;81.04;98795.78;4167897;28;20527;-51
2023/06/28 01:49:17;;;;;;;2.40;1.00;;;;;;;18.39;80.99;98794.19;4166193;28;20705;-53
2023/06/28 01:51:20;;;;;;;3.13;1.27;;;;;;;18.37;81.06;98790.84;4122909;28;20219;-54
2023/06/28 01:53:21;;;;;;;3.60;1.65;;;;;;;18.34;80.75;98786.75;4149317;28;20678;-51
2023/06/28 01:55:23;;;;;;;1.67;1.23;;;;;;;18.31;80.97;98787.31;4135466;28;20228;-52
2023/06/28 01:57:25;;;;;;;2.28;1.10;;;;;;;18.35;81.40;98784.78;4133377;28;20206;-53
2023/06/28 01:59:27;;;;;;;1.88;1.40;;;;;;;18.38;82.02;98787.00;4163074;28;20299;-53
2023/06/28 02:01:28;;;;;;;2.20;1.20;;;;;;;18.40;81.82;98782.81;4139382;28;20680;-53
2023/06/28 02:03:30;;;;;;;1.83;1.00;;;;;;;18.38;82.48;98778.66;4138853;28;20225;-51
2023/06/28 02:05:32;;;;;;;2.80;1.10;;;;;;;18.37;82.31;98774.22;4149734;28;20347;-51
2023/06/28 02:07:34;;;;;;;2.67;1.05;;;;;;;18.37;82.83;98780.59;4132209;28;20244;-51
2023/06/28 02:09:36;;;;;;;1.73;1.30;;;;;;;18.35;82.97;98782.00;4132350;28;20265;-53
2023/06/28 02:11:38;;;;;;;0.85;0.80;;;;;;;18.34;83.29;98777.59;4133336;28;20210;-51
2023/06/28 02:13:40;;;;;;;2.22;1.10;;;;;;;18.37;84.24;98775.06;4124295;28;20256;-52
2023/06/28 02:15:41;;;;;;;2.15;1.40;;;;;;;18.31;85.60;98775.44;4134591;28;20780;-53
2023/06/28 02:17:43;;;;;;;3.35;1.40;;;;;;;18.23;85.67;98778.78;4165082;28;20225;-52
2023/06/28 02:19:45;;;;;;;4.25;1.42;;;;;;;17.69;89.98;98778.19;4146226;28;20304;-52
2023/06/28 02:21:47;;;;;;;2.58;1.25;;;;;;;17.78;89.00;98776.47;4149838;28;20216;-53
2023/06/28 02:23:49;;;;;;;1.75;1.15;;;;;;;17.92;87.98;98772.72;4147350;28;20617;-52
2023/06/28 02:25:51;;;;;;;1.83;1.15;;;;;;;17.97;87.03;98774.59;4164909;28;20217;-53
2023/06/28 02:27:53;;;;;;;2.13;1.45;;;;;;;18.07;86.39;98782.84;4133313;28;20247;-53
2023/06/28 02:29:56;;;;;;;1.80;1.00;;;;;;;18.10;85.35;98785.00;4134107;28;20213;-52
2023/06/28 02:31:58;;;;;;;4.32;1.20;;;;;;;18.19;84.73;98775.78;4134321;28;20209;-55
2023/06/28 02:33:59;;;;;;;4.75;1.50;;;;;;;18.18;84.87;98773.31;4133827;28;20296;-51
2023/06/28 02:36:01;;;;;;;2.08;0.98;;;;;;;18.17;84.90;98785.50;4136536;28;20224;-52
2023/06/28 02:38:03;;;;;;;2.22;1.27;;;;;;;18.14;85.57;98780.53;4137914;28;20767;-52
2023/06/28 02:40:05;;;;;;;2.60;1.20;;;;;;;18.13;86.10;98784.44;4133615;28;20266;-51
2023/06/28 02:42:07;;;;;;;3.25;1.45;;;;;;;18.12;86.74;98785.56;4139850;28;20209;-54
2023/06/28 02:44:09;;;;;;;3.75;1.17;;;;;;;18.14;86.35;98778.63;4147646;28;20241;-54
2023/06/28 02:46:11;;;;;;;1.83;1.08;;;;;;;18.11;86.45;98775.59;4132241;28;20234;-52
2023/06/28 02:48:13;;;;;;;2.85;1.52;;;;;;;18.09;86.13;98773.13;4133758;28;20243;-54
2023/06/28 02:50:15;;;;;;;1.52;0.90;;;;;;;18.06;86.73;98783.97;4139464;28;20209;-53
2023/06/28 02:52:16;;;;;;;3.58;1.35;;;;;;;18.06;86.84;98783.97;4125357;28;20209;-51
2023/06/28 02:54:19;;;;;;;2.90;1.35;;;;;;;18.04;86.63;98780.66;4148860;28;20220;-51
2023/06/28 02:56:23;;;;;;;1.52;1.15;;;;;;;18.00;86.56;98779.56;4134749;28;20773;-51
2023/06/28 02:58:25;;;;;;;1.50;1.15;;;;;;;17.97;86.41;98780.97;4132703;28;20249;-52
2023/06/28 03:00:26;;;;;;;3.60;1.60;;;;;;;17.96;86.66;98779.34;4133592;28;20213;-52
2023/06/28 03:02:28;;;;;;;3.78;1.20;;;;;;;18.01;86.91;98786.75;4138481;28;20276;-53
2023/06/28 03:04:30;;;;;;;2.60;1.50;;;;;;;18.02;87.21;98782.88;4132905;28;20263;-54
2023/06/28 03:06:32;;;;;;;2.67;1.40;;;;;;;17.97;87.06;98785.69;4156514;28;20706;-53
2023/06/28 03:08:34;;;;;;;3.58;1.48;;;;;;;17.94;87.25;98780.75;4167998;28;20300;-52
2023/06/28 03:10:35;;;;;;;2.92;1.40;;;;;;;17.93;87.22;98779.09;4143631;28;20210;-52
2023/06/28 03:12:37;;;;;;;2.05;1.35;;;;;;;17.86;87.37;98778.59;4160190;28;20211;-57
2023/06/28 03:14:39;;;;;;;2.10;1.20;;;;;;;17.87;87.84;98781.09;4127934;28;20228;-52
2023/06/28 03:16:41;;;;;;;2.38;1.02;;;;;;;17.86;87.81;98778.59;4140753;28;21176;-51
2023/06/28 03:18:43;;;;;;;2.53;1.10;;;;;;;17.85;87.74;98785.25;4134188;28;20623;-52
2023/06/28 03:20:44;;;;;;;1.70;1.42;;;;;;;17.83;87.74;98780.00;4146396;28;20260;-51
2023/06/28 03:22:49;;;;;;;1.90;1.20;;;;;;;17.81;87.58;98775.88;4132327;28;20240;-53
2023/06/28 03:24:51;;;;;;;2.15;1.38;;;;;;;17.85;87.87;98779.72;4164536;28;20307;-51
2023/06/28 03:26:53;;;;;;;2.30;1.17;;;;;;;17.78;88.54;98776.47;4151553;28;20278;-52
2023/06/28 03:28:57;;;;;;;2.15;1.10;;;;;;;17.79;88.24;98778.91;4120965;28;20210;-51
2023/06/28 03:30:59;;;;;;;3.38;1.40;;;;;;;17.77;88.05;98774.78;4132338;28;20775;-52
2023/06/28 03:33:01;;;;;;;1.60;1.40;;;;;;;17.75;88.36;98782.56;4148525;28;20255;-52
2023/06/28 03:35:03;;;;;;;2.00;1.15;;;;;;;17.75;88.40;98771.50;4163562;28;20262;-51
2023/06/28 03:37:07;;;;;;;2.13;1.50;;;;;;;17.77;88.32;98769.25;4133417;28;20221;-53
2023/06/28 03:39:09;;;;;;;2.08;1.15;;;;;;;17.75;88.94;98765.94;4155515;28;20299;-54
2023/06/28 03:41:13;;;;;;;2.20;1.40;;;;;;;17.74;88.76;98775.38;4138811;28;20206;-52
2023/06/28 03:43:14;;;;;;;3.35;1.50;;;;;;;17.84;89.22;98770.56;4139420;28;20229;-52
2023/06/28 03:45:16;;;;;;;2.15;1.10;;;;;;;17.85;89.15;98765.88;4137452;28;20468;-53
2023/06/28 03:47:18;;;;;;;2.97;1.17;;;;;;;17.80;88.99;98774.22;4133903;28;20212;-54
2023/06/28 03:49:20;;;;;;;1.63;1.38;;;;;;;17.79;89.22;98778.91;4130441;28;20220;-52
2023/06/28 03:51:22;;;;;;;1.45;1.30;;;;;;;17.79;88.87;98772.56;4131888;28;20656;-51
2023/06/28 03:53:24;;;;;;;3.20;1.77;;;;;;;17.74;89.25;98779.00;4132936;28;20213;-53
2023/06/28 03:55:25;;;;;;;1.85;1.48;;;;;;;17.72;89.11;98775.66;4130810;28;20276;-52
2023/06/28 03:57:27;;;;;;;3.17;1.48;;;;;;;17.75;89.34;98780.63;4130025;28;20309;-51
2023/06/28 03:59:29;;;;;;;3.00;1.48;;;;;;;17.72;89.39;98777.63;4135439;28;20778;-53
2023/06/28 04:01:32;;;;;;;3.10;1.30;;;;;;;17.36;92.20;98782.56;4165856;28;20231;-53
2023/06/28 04:03:34;;;;;;;3.85;1.38;;;;;;;17.16;94.08;98784.63;4141170;28;20697;-52
2023/06/28 04:05:36;;;;;;;2.58;1.38;;;;;;;16.80;96.57;98780.41;4149137;28;20240;-52
2023/06/28 04:07:38;;;;;;;1.30;1.10;;;;;;;16.85;96.76;98785.91;4140224;28;20272;-53
2023/06/28 04:09:40;;;;;;;2.63;1.70;;;;;;;16.54;97.85;98781.63;4142832;28;20205;-55
2023/06/28 04:11:43;;;;;;;2.88;1.30;;;;;;;16.89;96.25;98772.34;4137916;28;20209;-51
2023/06/28 04:13:44;;;;;;;2.88;1.45;;;;;;;16.86;95.71;98782.03;4140897;28;20205;-54
2023/06/28 04:15:46;;;;;;;2.58;1.77;;;;;;;17.04;94.76;98781.38;4149300;28;20231;-52
2023/06/28 04:17:48;;;;;;;2.35;1.63;;;;;;;17.12;94.03;98784.38;4149049;28;20252;-52
2023/06/28 04:19:50;;;;;;;2.60;1.30;;;;;;;17.24;93.41;98778.47;4139334;28;20213;-54
2023/06/28 04:21:52;;;;;;;3.25;1.75;;;;;;;17.35;92.67;98771.78;4134207;28;20202;-52
2023/06/28 04:23:54;;;;;;;2.58;1.40;;;;;;;17.40;92.56;98774.53;4145083;28;20229;-51
2023/06/28 04:25:57;;;;;;;2.65;1.42;;;;;;;17.45;92.51;98780.06;4137089;28;20225;-51
2023/06/28 04:27:59;;;;;;;2.40;1.63;;;;;;;17.45;92.13;98772.56;4170126;28;20683;-53
2023/06/28 04:30:02;;;;;;;2.13;1.40;;;;;;;17.54;91.69;98775.53;4144536;28;20671;-51
2023/06/28 04:32:21;;;;;;;1.90;1.52;;;;;;;17.61;91.35;98773.28;4138574;28;20254;-51
2023/06/28 04:34:22;;;;;;;8.00;1.77;;;;;;;17.26;93.67;98767.97;4144888;28;20219;-51
2023/06/28 04:36:25;;;;;;;2.25;1.48;;;;;;;17.48;93.18;98769.22;4137006;28;20252;-52
2023/06/28 04:38:27;;;;;;;2.25;1.23;;;;;;;17.44;93.20;98768.16;4137805;28;20291;-51
2023/06/28 04:40:31;;;;;;;2.78;1.20;;;;;;;17.50;92.70;98768.91;4154952;28;20304;-53
2023/06/28 04:42:34;;;;;;;5.63;1.30;;;;;;;17.56;92.72;98773.31;4138761;28;20675;-52
2023/06/28 04:44:36;;;;;;;3.75;1.65;;;;;;;17.23;93.90;98774.91;4136365;28;20324;-51
2023/06/28 04:46:38;;;;;;;2.70;1.42;;;;;;;17.15;94.24;98782.97;4152293;28;20232;-53
2023/06/28 04:48:42;;;;;;;7.30;1.65;;;;;;;17.25;93.62;98782.91;4138185;28;20221;-51
2023/06/28 04:50:47;;;;;;;1.90;1.70;;;;;;;17.27;93.43;98781.53;4145042;28;20217;-54
2023/06/28 04:52:49;;;;;;;2.58;1.35;;;;;;;17.44;92.59;98786.72;4149359;28;20213;-51
2023/06/28 04:54:51;;;;;;;6.28;1.52;;;;;;;17.54;92.54;98793.00;4138953;28;20214;-54
2023/06/28 04:56:53;;;;;;;2.03;1.15;;;;;;;17.64;91.76;98789.31;4143732;28;20228;-54
2023/06/28 04:58:54;;;;;;;11.10;2.03;;;;;;;17.79;92.44;98794.72;4141921;28;20210;-53
2023/06/28 05:00:56;;;;;;;2.53;1.30;;;;;;;17.78;93.05;98787.53;4137937;28;20655;-52
2023/06/28 05:03:02;;;;;;;2.20;1.27;;;;;;;17.87;92.18;98781.09;4165184;28;20277;-52
2023/06/28 05:05:04;;;;;;;1.92;1.30;;;;;;;17.81;92.01;98781.41;4136772;28;20213;-52
2023/06/28 05:07:07;;;;;;;2.20;1.30;;;;;;;17.85;91.57;98782.50;4135752;28;20209;-51
2023/06/28 05:09:08;;;;;;;2.13;1.38;;;;;;;17.92;90.87;98771.91;4141910;28;20714;-52
2023/06/28 05:11:10;;;;;;;3.08;1.63;;;;;;;17.84;91.81;98769.78;4143849;28;20668;-53
2023/06/28 05:13:12;;;;;;;3.08;1.77;;;;;;;17.93;91.23;98776.31;4150197;28;20691;-51
2023/06/28 05:15:14;;;;;;;2.03;1.33;;;;;;;17.89;91.13;98778.00;4134193;28;20222;-52
2023/06/28 05:17:16;;;;;;;2.28;1.50;;;;;;;17.80;89.76;98777.81;4137701;28;20217;-54
2023/06/28 05:19:18;;;;;;;2.40;1.35;;;;;;;17.79;89.53;98783.66;4137724;28;20209;-54
2023/06/28 05:21:20;;;;;;;2.45;1.70;;;;;;;17.79;88.64;98778.13;4150274;28;20208;-51
2023/06/28 05:23:22;;;;;;;2.53;1.40;;;;;;;17.85;88.69;98785.25;4167171;28;20259;-51
2023/06/28 05:25:24;;;;;;;1.30;1.20;;;;;;;17.96;88.29;98778.50;4134937;28;20230;-52
2023/06/28 05:27:26;;;;;;;3.58;1.38;;;;;;;18.07;88.57;98780.06;4147058;28;20221;-51
2023/06/28 05:29:27;;;;;;;7.55;1.50;;;;;;;18.17;89.21;98785.50;4135725;28;20209;-51
2023/06/28 05:31:32;;;;;;;2.63;1.63;;;;;;;18.26;89.29;98783.75;4134700;28;20589;-52
2023/06/28 05:33:34;;;;;;;3.25;1.80;;;;;;;18.17;91.42;98785.50;4164141;28;20309;-53
2023/06/28 05:35:36;;;;;;;2.35;1.33;;;;;;;18.31;91.54;98789.28;4136861;28;20229;-51
2023/06/28 05:37:40;;;;;;;6.10;1.30;;;;;;;18.34;92.36;98785.91;4156681;28;20205;-52
2023/06/28 05:39:43;;;;;;;2.78;1.50;;;;;;;18.38;91.77;98787.00;4123308;28;20671;-51
2023/06/28 05:41:45;;;;;;;3.33;1.20;;;;;;;18.41;92.15;98786.38;4134115;28;20225;-51
2023/06/28 05:43:47;;;;;;;1.98;1.15;;;;;;;18.43;92.04;98786.91;4118479;28;20233;-51
2023/06/28 05:45:50;;;;;;;2.13;1.45;;;;;;;18.45;92.45;98793.00;4132661;28;20755;-54
2023/06/28 05:47:51;;;;;;;4.25;1.40;;;;;;;18.46;92.07;98789.09;4132920;28;20201;-51
2023/06/28 05:49:53;;;;;;;2.97;1.40;;;;;;;18.49;91.03;98791.28;4143203;28;20237;-51
2023/06/28 05:51:55;;;;;;;1.67;1.10;;;;;;;18.44;90.63;98791.34;4149632;28;20287;-53
2023/06/28 05:53:57;;;;;;;3.45;1.17;;;;;;;18.44;89.77;98792.16;4137098;28;20217;-51
2023/06/28 05:55:59;;;;;;;2.15;1.30;;;;;;;18.46;88.45;98800.19;4152373;28;20229;-52
2023/06/28 05:58:00;;;;;;;1.73;1.38;;;;;;;18.48;88.23;98792.41;4136857;28;20570;-51
2023/06/28 06:00:04;;;;;;;5.80;1.30;;;;;;;18.52;89.09;98796.25;4149960;28;20205;-52
2023/06/28 06:02:06;;;;;;;10.40;1.33;;;;;;;18.48;89.85;98786.84;4138802;28;20210;-53
2023/06/28 06:04:08;;;;;;;3.03;1.48;;;;;;;18.47;89.02;98787.97;4151971;28;20263;-51
2023/06/28 06:06:09;;;;;;;2.53;1.10;;;;;;;18.53;88.77;98795.13;4136696;28;20237;-52
2023/06/28 06:08:12;;;;;;;3.63;1.17;;;;;;;18.60;88.76;98801.13;4135100;28;20780;-51
2023/06/28 06:10:17;;;;;;;1.52;1.42;;;;;;;18.64;88.94;98796.66;4135586;28;20220;-51
2023/06/28 06:12:18;;;;;;;1.40;1.10;;;;;;;18.72;86.55;98794.03;4170185;28;20215;-51
2023/06/28 06:14:20;;;;;;;3.13;1.50;;;;;;;18.82;86.80;98798.66;4136043;28;20218;-52
2023/06/28 06:16:22;;;;;;;1.25;1.15;;;;;;;18.88;85.99;98803.00;4167867;28;20297;-51
2023/06/28 06:18:24;;;;;;;1.67;1.10;;;;;;;18.93;85.35;98805.72;4152568;28;20671;-51
2023/06/28 06:20:26;;;;;;;4.40;1.40;;;;;;;19.01;84.61;98807.84;4150664;28;20744;-50
2023/06/28 06:22:28;;;;;;;2.42;1.02;;;;;;;19.04;84.18;98807.25;4142860;28;20722;-51
2023/06/28 06:24:30;;;;;;;3.80;1.35;;;;;;;19.15;84.17;98806.81;4132495;28;20252;-51
2023/06/28 06:26:32;;;;;;;6.53;1.55;;;;;;;19.25;83.86;98808.66;4142198;28;20229;-52
2023/06/28 06:28:33;;;;;;;3.10;2.22;;;;;;;19.36;84.11;98804.59;4149818;28;20606;-51
2023/06/28 06:30:35;;;;;;;3.40;1.70;;;;;;;19.57;82.91;98805.97;4134906;28;20538;-52
2023/06/28 06:32:37;;;;;;;3.00;2.38;;;;;;;19.71;81.72;98802.13;4136426;28;20213;-51
2023/06/28 06:34:39;;;;;;;3.17;1.50;;;;;;;19.90;80.71;98804.88;4151306;28;20299;-50
2023/06/28 06:36:41;;;;;;;1.23;1.08;;;;;;;19.94;78.63;98811.47;4135139;28;20225;-51
2023/06/28 06:38:42;;;;;;;2.15;1.10;;;;;;;19.31;79.57;98807.47;4134341;28;20205;-51
2023/06/28 06:40:45;;;;;;;1.15;0.93;;;;;;;19.42;79.80;98809.78;4168297;28;20218;-51
2023/06/28 06:42:49;;;;;;;4.25;1.40;;;;;;;19.57;79.22;98800.41;4143157;28;20209;-51
2023/06/28 06:44:51;;;;;;;4.10;1.65;;;;;;;19.64;77.60;98804.44;4148909;28;20232;-52
2023/06/28 06:46:52;;;;;;;2.15;1.65;;;;;;;19.33;77.97;98802.44;4142539;28;20221;-51
2023/06/28 06:48:55;;;;;;;9.55;1.40;;;;;;;19.67;77.27;98801.09;4138412;28;20221;-50
2023/06/28 06:50:57;;;;;;;3.17;1.40;;;;;;;20.02;76.24;98808.00;4142796;28;20643;-51
2023/06/28 06:52:59;;;;;;;5.53;1.58;;;;;;;19.99;73.84;98805.84;4150026;28;20262;-51
2023/06/28 06:55:01;;;;;;;1.88;1.02;;;;;;;20.45;73.89;98812.25;4133525;28;20197;-52
2023/06/28 06:57:03;;;;;;;1.25;0.90;;;;;;;20.47;71.13;98810.81;4150597;28;20204;-51
2023/06/28 06:59:04;;;;;;;6.32;1.30;;;;;;;20.88;70.29;98808.09;4150189;28;20200;-52
2023/06/28 07:01:06;;;;;;;2.90;1.33;;;;;;;21.08;70.12;98810.44;4136099;28;20208;-50
2023/06/28 07:03:08;;;;;;;2.00;1.30;;;;;;;21.13;67.98;98810.34;4139134;28;20290;-51
2023/06/28 07:05:10;;;;;;;3.17;1.38;;;;;;;21.45;67.50;98807.41;4152111;28;20228;-50
2023/06/28 07:07:12;;;;;;;7.25;1.80;;;;;;;21.40;64.38;98810.28;4152303;28;20204;-51
2023/06/28 07:09:15;;;;;;;4.22;1.42;;;;;;;21.53;62.13;98801.09;4127895;28;20208;-51
2023/06/28 07:11:17;;;;;;;2.85;1.50;;;;;;;21.25;62.68;98799.50;4150765;28;20654;-51
2023/06/28 07:13:18;;;;;;;2.22;1.40;;;;;;;21.04;62.99;98809.44;4131157;28;20737;-52
2023/06/28 07:15:20;;;;;;;3.15;1.83;;;;;;;21.35;63.84;98804.84;4128255;28;20249;-50
2023/06/28 07:17:22;;;;;;;4.93;1.38;;;;;;;21.55;62.56;98804.38;4125592;28;20260;-52
2023/06/28 07:19:24;;;;;;;2.38;1.17;;;;;;;21.30;64.05;98802.19;4158061;28;20346;-51
2023/06/28 07:21:26;;;;;;;4.60;1.40;;;;;;;21.75;63.32;98803.91;4131272;28;20259;-51
2023/06/28 07:23:28;;;;;;;3.55;1.33;;;;;;;22.04;63.56;98807.13;4154001;28;20274;-51
2023/06/28 07:25:32;;;;;;;7.68;1.92;;;;;;;22.15;61.46;98814.06;4132026;28;20240;-52
2023/06/28 07:27:34;;;;;;;3.22;1.80;;;;;;;21.96;60.30;98805.06;4135436;28;20209;-52
2023/06/28 07:29:35;;;;;;;3.83;1.80;;;;;;;21.48;60.47;98812.34;4135987;28;20635;-51
2023/06/28 07:31:37;;;;;;;3.00;1.20;;;;;;;21.23;61.70;98807.34;4148892;28;20262;-51
2023/06/28 07:33:40;;;;;;;1.75;1.15;;;;;;;21.64;61.54;98808.06;4165421;28;20226;-51
2023/06/28 07:35:42;;;;;;;12.30;1.48;;;;;;;21.52;59.63;98805.81;4162288;28;20724;-51
2023/06/28 07:37:44;;;;;;;2.33;1.25;;;;;;;21.55;60.64;98804.38;4161211;28;20345;-50
2023/06/28 07:39:46;;;;;;;1.77;1.10;;;;;;;21.43;60.53;98793.78;4146631;28;21056;-51
2023/06/28 07:41:48;;;;;;;4.57;1.80;;;;;;;21.52;61.23;98796.66;4164518;28;20204;-52
2023/06/28 07:43:50;;;;;;;3.13;1.40;;;;;;;21.67;61.20;98807.47;4164256;28;20212;-51
2023/06/28 07:45:52;;;;;;;5.20;1.42;;;;;;;21.35;61.27;98804.84;4124577;28;20264;-52
2023/06/28 07:47:54;;;;;;;5.03;1.30;;;;;;;21.44;60.78;98809.34;4135494;28;20202;-51
2023/06/28 07:49:56;;;;;;;2.65;1.40;;;;;;;21.90;61.15;98807.16;4147566;28;20200;-51
2023/06/28 07:52:00;;;;;;;2.53;1.17;;;;;;;22.30;59.78;98810.91;4153212;28;20211;-52
2023/06/28 07:54:02;;;;;;;3.35;1.30;;;;;;;22.92;59.08;98806.97;4139027;28;20201;-52
2023/06/28 07:56:04;;;;;;;3.42;1.55;;;;;;;23.30;58.03;98802.53;4144359;28;20622;-51
2023/06/28 07:58:05;;;;;;;2.60;1.23;;;;;;;23.67;56.82;98789.56;4153175;28;20208;-51
2023/06/28 08:00:10;;;;;;;2.53;1.25;;;;;;;24.07;55.76;98788.25;4153681;28;20296;-52
2023/06/28 08:02:11;;;;;;;2.38;1.58;;;;;;;23.33;54.27;98796.28;4153054;28;20701;-51
2023/06/28 08:04:15;;;;;;;1.77;1.42;;;;;;;22.70;56.09;98787.53;4143334;28;20233;-51
2023/06/28 08:06:17;;;;;;;4.38;1.60;;;;;;;22.17;56.79;98789.50;4142424;28;20668;-51
2023/06/28 08:08:19;;;;;;;5.60;1.58;;;;;;;22.00;57.31;98789.38;4163871;28;20543;-52
2023/06/28 08:10:27;;;;;;;1.77;1.23;;;;;;;21.82;58.38;98787.59;4133819;28;20219;-52
2023/06/28 08:12:30;;;;;;;6.50;2.13;;;;;;;22.02;57.54;98784.28;4167094;28;20261;-51
2023/06/28 08:14:31;;;;;;;2.30;1.45;;;;;;;22.71;57.32;98780.78;4139926;28;20209;-51
2023/06/28 08:16:33;;;;;;;3.63;1.55;;;;;;;23.24;56.10;98781.47;4132605;28;20224;-51
2023/06/28 08:18:36;;;;;;;2.58;1.17;;;;;;;23.79;55.45;98778.53;4135821;28;20876;-51
2023/06/28 08:20:38;;;;;;;2.47;1.30;;;;;;;23.44;53.74;98775.25;4137174;28;20614;-51
2023/06/28 08:22:43;;;;;;;2.58;1.15;;;;;;;22.86;53.89;98780.34;4133637;28;20603;-51
2023/06/28 08:24:45;;;;;;;5.70;1.30;;;;;;;23.00;52.80;98783.84;4136059;28;20581;-51
2023/06/28 08:26:47;;;;;;;4.72;1.20;;;;;;;22.42;52.25;98788.81;4150222;28;20236;-52
2023/06/28 08:28:49;;;;;;;5.90;0.88;;;;;;;22.73;53.56;98787.69;4168306;28;21069;-51
2023/06/28 08:31:01;;;;;;;3.75;1.40;;;;;;;22.82;52.31;98790.50;4138293;28;20259;-51
2023/06/28 08:33:03;;;;;;;2.33;1.15;;;;;;;22.48;52.25;98795.94;4148617;28;20212;-51
2023/06/28 08:35:06;;;;;;;3.33;1.30;;;;;;;22.13;52.84;98788.47;4150063;28;20263;-52
2023/06/28 08:37:08;;;;;;;6.22;1.73;;;;;;;22.53;52.90;98793.84;4164254;28;20208;-52
2023/06/28 08:39:10;;;;;;;2.97;1.20;;;;;;;22.51;52.13;98792.50;4137578;28;20244;-51
2023/06/28 08:41:13;;;;;;;3.38;1.52;;;;;;;22.29;52.85;98789.72;4138565;28;20216;-52
2023/06/28 08:43:21;;;;;;;2.05;1.20;;;;;;;22.62;52.75;98782.69;4134142;28;20201;-51
2023/06/28 08:45:23;;;;;;;3.50;1.60;;;;;;;22.60;53.18;98790.56;4164519;28;20239;-51
2023/06/28 08:47:31;;;;;;;2.55;1.33;;;;;;;22.52;53.11;98794.16;4127392;28;20206;-51
2023/06/28 08:49:35;;;;;;;4.95;1.80;;;;;;;22.43;54.32;98794.09;4135161;28;20332;-53
2023/06/28 08:51:38;;;;;;;3.22;1.17;;;;;;;23.09;53.91;98790.25;4128960;28;20225;-51
2023/06/28 08:53:44;;;;;;;3.13;1.05;;;;;;;23.33;53.34;98785.09;4150449;28;20737;-52
2023/06/28 08:55:47;;;;;;;2.80;0.90;;;;;;;23.62;53.06;98788.06;4138046;28;20223;-51
2023/06/28 08:57:50;;;;;;;2.47;1.08;;;;;;;23.34;52.36;98781.16;4138171;28;20213;-52
2023/06/28 08:59:52;;;;;;;2.67;1.23;;;;;;;23.09;52.06;98779.91;4142186;28;20223;-51
2023/06/28 09:01:55;;;;;;;2.72;0.73;;;;;;;23.24;52.37;98771.09;4135702;28;20227;-53
2023/06/28 09:03:58;;;;;;;2.58;0.85;;;;;;;23.06;52.65;98775.00;4149517;28;20229;-52
2023/06/28 09:06:01;;;;;;;2.92;1.05;;;;;;;23.36;51.76;98762.09;4135094;28;20680;-52
2023/06/28 09:08:03;;;;;;;2.97;0.90;;;;;;;23.65;51.55;98765.06;4138999;28;20205;-53
2023/06/28 09:10:09;;;;;;;3.92;1.27;;;;;;;23.94;50.88;98764.09;4152967;28;20826;-51
2023/06/28 09:12:11;;;;;;;2.35;1.10;;;;;;;24.09;50.37;98777.56;4144698;28;20217;-51
2023/06/28 09:14:13;;;;;;;5.10;1.55;;;;;;;24.64;50.97;98772.84;4166679;28;20242;-52
2023/06/28 09:16:18;;;;;;;3.67;1.27;;;;;;;24.85;49.39;98776.53;4139914;28;21169;-53
2023/06/28 09:18:21;;;;;;;4.22;1.25;;;;;;;25.07;49.00;98781.84;4137627;28;20206;-53
2023/06/28 09:20:24;;;;;;;1.80;0.90;;;;;;;24.74;48.20;98778.06;4139809;28;20212;-51
2023/06/28 09:22:27;;;;;;;2.15;1.00;;;;;;;24.67;49.65;98774.97;4149662;28;20213;-51
2023/06/28 09:24:34;;;;;;;4.00;1.20;;;;;;;24.43;48.52;98771.91;4134150;28;20227;-51
2023/06/28 09:26:36;;;;;;;4.13;1.38;;;;;;;23.92;49.47;98767.56;4151895;28;20591;-53
2023/06/28 09:28:39;;;;;;;1.10;0.85;;;;;;;24.04;48.48;98772.16;4151378;28;20209;-52
2023/06/28 09:30:43;;;;;;;3.28;1.10;;;;;;;23.73;48.86;98772.63;4148586;28;20204;-52
2023/06/28 09:32:50;;;;;;;2.17;1.10;;;;;;;24.03;48.92;98766.88;4135124;28;20209;-53
2023/06/28 09:34:52;;;;;;;2.03;1.10;;;;;;;23.83;49.48;98773.94;4142103;28;20209;-51
2023/06/28 09:36:55;;;;;;;2.10;0.93;;;;;;;23.55;49.58;98768.19;4152884;28;20229;-51